Time;durP1;ratioP1;P1;durP2;ratioP2;P2;SDS_P1;SDS_P2;PMS_P1;PMS_P2;Temp;Humidity;BMP_temperature;BMP_pressure;BME280_temperature;BME280_humidity;BME280_pressure;Samples;Min_cycle;Max_cycle;Signal;HPM_P1;HPM_P2
2022/12/14 00:01:53;;;;;;;31.67;14.33;;;-1.80;73.00;;;2.10;46.22;96248.50;4994051;28;20049;-53
2022/12/14 00:04:20;;;;;;;31.83;14.77;;;-1.70;72.60;;;2.09;45.84;96233.69;5002144;28;20046;-52
2022/12/14 00:06:48;;;;;;;26.97;13.57;;;-1.80;72.20;;;2.09;46.06;96237.13;5002161;28;20034;-51
2022/12/14 00:09:16;;;;;;;23.40;11.40;;;-1.80;71.90;;;2.10;45.69;96238.00;5001199;28;20249;-52
2022/12/14 00:11:44;;;;;;;26.40;12.93;;;-1.80;72.30;;;2.12;45.65;96234.25;5002130;28;20260;-52
2022/12/14 00:14:11;;;;;;;22.13;11.07;;;-1.80;72.10;;;2.16;45.62;96247.91;5002039;28;20044;-55
2022/12/14 00:16:39;;;;;;;19.17;9.87;;;-1.80;72.20;;;2.17;45.47;96239.06;5002260;28;20053;-51
2022/12/14 00:19:12;;;;;;;26.40;11.67;;;-1.70;72.60;;;2.19;45.79;96236.28;5002771;28;20050;-55
2022/12/14 00:21:40;;;;;;;24.07;12.10;;;-1.70;72.40;;;2.23;46.01;96242.91;5001300;28;20058;-51
2022/12/14 00:24:09;;;;;;;16.67;9.27;;;-1.70;72.50;;;2.25;46.24;96239.19;5002090;28;20491;-53
2022/12/14 00:26:37;;;;;;;22.77;10.47;;;-1.70;72.80;;;2.26;45.69;96225.06;5002312;28;20098;-52
2022/12/14 00:29:04;;;;;;;20.37;10.33;;;-1.70;72.90;;;2.24;46.08;96229.63;5005658;28;20046;-52
2022/12/14 00:31:32;;;;;;;28.77;13.17;;;-1.80;73.70;;;2.24;45.63;96221.75;5005532;28;20050;-52
2022/12/14 00:34:00;;;;;;;24.47;10.93;;;-1.80;74.00;;;2.25;46.17;96219.94;5005813;28;20061;-52
2022/12/14 00:36:30;;;;;;;21.53;11.77;;;-1.70;74.50;;;2.24;45.87;96211.25;5005840;28;20057;-54
2022/12/14 00:38:58;;;;;;;17.63;10.40;;;-1.80;73.90;;;2.28;46.16;96202.13;5005524;28;20042;-51
2022/12/14 00:41:26;;;;;;;19.77;10.73;;;-1.70;74.30;;;2.31;46.31;96198.41;5004375;28;20042;-54
2022/12/14 00:43:54;;;;;;;20.97;11.13;;;-1.70;73.50;;;2.32;45.79;96202.66;5004999;28;20042;-53
2022/12/14 00:46:22;;;;;;;26.93;11.63;;;-1.60;73.60;;;2.32;46.35;96208.72;5005807;28;20072;-52
2022/12/14 00:48:50;;;;;;;28.23;12.63;;;-1.60;73.80;;;2.35;46.15;96215.50;5005766;28;20050;-52
2022/12/14 00:51:18;;;;;;;56.87;24.70;;;-1.60;73.90;;;2.36;46.21;96197.00;5005238;28;20057;-53
2022/12/14 00:53:45;;;;;;;36.97;15.80;;;-1.50;73.50;;;2.40;45.86;96199.31;5004642;28;20056;-54
2022/12/14 00:56:13;;;;;;;33.47;13.67;;;-1.50;73.00;;;2.39;46.16;96206.38;5005510;28;20042;-49
2022/12/14 00:58:41;;;;;;;32.77;13.70;;;-1.60;73.20;;;2.40;46.45;96210.63;5005601;28;20038;-52
2022/12/14 01:01:12;;;;;;;27.73;12.63;;;-1.60;74.10;;;2.41;46.35;96203.59;5011880;28;20046;-52
2022/12/14 01:03:41;;;;;;;31.93;13.80;;;-1.60;74.70;;;2.41;46.38;96190.47;5004190;28;20236;-54
2022/12/14 01:06:19;;;;;;;23.23;10.47;;;-1.60;75.20;;;2.39;46.40;96195.03;5005287;28;20042;-53
2022/12/14 01:08:47;;;;;;;19.73;10.47;;;-1.60;75.30;;;2.39;46.64;96202.91;5004362;28;20264;-53
2022/12/14 01:11:15;;;;;;;29.47;12.93;;;-1.60;75.60;;;2.34;46.89;96209.41;5004813;28;20046;-53
2022/12/14 01:13:43;;;;;;;25.50;11.27;;;-1.70;75.50;;;2.34;47.00;96213.84;5004082;28;20069;-55
2022/12/14 01:16:16;;;;;;;38.20;15.27;;;-1.70;75.90;;;2.34;46.84;96212.03;5004211;28;20046;-53
2022/12/14 01:18:44;;;;;;;20.87;11.50;;;-1.60;75.80;;;2.35;46.49;96212.88;5003932;28;20226;-53
2022/12/14 01:21:18;;;;;;;23.40;12.30;;;-1.60;75.70;;;2.34;46.82;96212.03;5003667;28;20042;-52
2022/12/14 01:23:50;;;;;;;24.00;10.83;;;-1.50;75.30;;;2.36;46.53;96211.91;5005178;28;20236;-54
2022/12/14 01:26:18;;;;;;;25.83;10.93;;;-1.50;75.20;;;2.35;46.53;96207.63;5004807;28;20046;-54
2022/12/14 01:28:51;;;;;;;18.53;10.90;;;-1.60;75.10;;;2.33;46.68;96202.53;5004485;28;20048;-54
2022/12/14 01:31:24;;;;;;;20.93;11.00;;;-1.60;75.50;;;2.34;46.78;96204.16;5002263;28;20054;-53
2022/12/14 01:33:53;;;;;;;19.73;11.18;;;-1.70;75.90;;;2.35;46.46;96210.25;5004871;28;20061;-54
2022/12/14 01:36:27;;;;;;;19.87;10.10;;;-1.70;76.90;;;2.39;46.80;96205.56;5003696;28;20050;-53
2022/12/14 01:38:59;;;;;;;20.53;11.00;;;-1.60;75.90;;;2.41;46.44;96207.03;5004244;28;20046;-52
2022/12/14 01:41:31;;;;;;;17.03;10.33;;;-1.50;76.00;;;2.40;46.72;96213.25;5004328;28;20038;-54
2022/12/14 01:44:06;;;;;;;19.63;10.60;;;-1.60;76.00;;;2.42;46.81;96215.75;4996810;28;20038;-54
2022/12/14 01:46:59;;;;;;;25.73;12.13;;;-1.50;75.70;;;2.41;46.52;96193.91;5004804;28;20046;-53
2022/12/14 01:49:40;;;;;;;18.17;9.93;;;-1.50;75.40;;;2.36;46.66;96180.38;5003655;28;20042;-53
2022/12/14 01:52:42;;;;;;;21.23;11.10;;;-1.50;74.90;;;2.34;47.08;96166.56;4997567;28;20042;-55
2022/12/14 01:55:26;;;;;;;27.57;11.67;;;-1.50;75.40;;;2.38;46.82;96169.72;4988574;28;20053;-55
2022/12/14 01:58:20;;;;;;;27.60;15.35;;;-1.60;75.10;;;2.28;46.90;96172.41;5003562;28;20057;-51
2022/12/14 02:00:53;;;;;;;36.45;13.98;;;-1.60;75.80;;;2.33;46.42;96175.44;5002374;28;20054;-52
2022/12/14 02:03:35;;;;;;;26.87;12.63;;;-1.70;76.30;;;2.33;46.64;96162.31;5003403;28;20052;-54
2022/12/14 02:06:20;;;;;;;16.20;9.30;;;-1.50;76.70;;;2.34;46.80;96164.75;4995850;28;20046;-51
2022/12/14 02:08:51;;;;;;;20.67;10.60;;;-1.50;75.90;;;2.38;46.50;96173.19;5003167;28;20055;-54
2022/12/14 02:11:34;;;;;;;18.97;9.37;;;-1.50;76.00;;;2.40;46.83;96167.78;5002821;28;20054;-53
2022/12/14 02:14:03;;;;;;;13.27;8.63;;;-1.50;75.50;;;2.45;46.84;96184.75;4996672;28;20050;-53
2022/12/14 02:16:31;;;;;;;18.87;9.57;;;-1.50;75.60;;;2.43;46.27;96176.19;5004251;28;20052;-53
2022/12/14 02:18:59;;;;;;;15.87;10.03;;;-1.50;75.60;;;2.44;46.58;96162.09;5004133;28;20060;-51
2022/12/14 02:21:50;;;;;;;16.30;9.27;;;-1.50;75.70;;;2.44;46.78;96153.38;5003437;28;20052;-50
2022/12/14 02:24:43;;;;;;;17.77;9.70;;;-1.50;75.70;;;2.41;46.74;96153.69;4998469;28;20042;-54
2022/12/14 02:27:41;;;;;;;15.80;8.70;;;-1.50;75.90;;;2.43;46.93;96149.13;4998181;28;20054;-54
2022/12/14 02:30:21;;;;;;;13.63;8.40;;;-1.40;75.70;;;2.44;46.64;96130.56;4996987;28;20042;-54
2022/12/14 02:33:07;;;;;;;13.03;7.63;;;-1.40;75.70;;;2.44;46.51;96148.94;5003266;28;20060;-52
2022/12/14 02:36:03;;;;;;;15.67;9.17;;;-1.50;75.90;;;2.41;46.89;96153.69;5018163;28;20256;-52
2022/12/14 02:38:52;;;;;;;14.43;7.80;;;-1.50;75.70;;;2.42;46.80;96158.78;4998877;28;20049;-54
2022/12/14 02:42:00;;;;;;;22.07;11.50;;;-1.40;76.00;;;2.45;46.82;96155.88;4998225;28;20253;-51
2022/12/14 02:44:37;;;;;;;20.40;11.47;;;-1.40;76.10;;;2.54;46.89;96148.91;4998233;28;20053;-52
2022/12/14 02:47:37;;;;;;;16.63;8.93;;;-1.40;75.60;;;2.45;46.86;96149.78;4996047;28;20224;-51
2022/12/14 02:50:11;;;;;;;17.20;9.20;;;-1.40;75.30;;;2.54;46.55;96151.53;4995043;28;20048;-52
2022/12/14 02:52:56;;;;;;;;;;;-1.40;75.00;;;2.47;47.04;96145.22;5003261;28;20042;-55
2022/12/14 02:55:29;;;;;;;21.23;10.23;;;-1.40;74.80;;;2.58;46.85;96124.00;5003481;28;19918;-52
2022/12/14 02:58:02;;;;;;;15.30;8.85;;;-1.30;74.80;;;2.60;46.58;96114.16;5002258;28;20054;-52
2022/12/14 03:00:34;;;;;;;15.30;8.70;;;-1.40;75.10;;;2.61;46.45;96112.34;5001604;28;20042;-55
2022/12/14 03:03:04;;;;;;;20.20;10.00;;;-1.30;75.70;;;2.63;46.88;96119.09;5002365;28;20252;-54
2022/12/14 03:05:33;;;;;;;17.70;8.87;;;-1.30;75.50;;;2.62;46.95;96119.25;5003171;28;20252;-54
2022/12/14 03:08:10;;;;;;;14.00;8.47;;;-1.20;75.20;;;2.59;46.38;96125.63;5003111;28;20049;-51
2022/12/14 03:10:50;;;;;;;18.97;9.93;;;-1.20;75.00;;;2.62;46.63;96116.63;5002649;28;20046;-54
2022/12/14 03:13:52;;;;;;;18.07;8.83;;;-1.20;75.30;;;2.61;46.72;96107.09;5002991;28;20050;-55
2022/12/14 03:16:59;;;;;;;17.90;9.30;;;-1.20;75.40;;;2.55;46.71;96113.78;4997288;28;20046;-53
2022/12/14 03:19:36;;;;;;;13.53;7.97;;;-1.20;75.10;;;2.62;46.44;96101.69;4994447;28;20058;-54
2022/12/14 03:22:16;;;;;;;16.00;9.30;;;-1.20;75.70;;;2.58;47.05;96097.72;5002090;28;20245;-51
2022/12/14 03:24:53;;;;;;;17.63;9.50;;;-1.20;75.30;;;2.63;46.99;96103.34;5001847;28;20048;-53
2022/12/14 03:27:34;;;;;;;16.97;9.37;;;-1.20;75.70;;;2.65;46.98;96108.44;5001919;28;20056;-55
2022/12/14 03:30:09;;;;;;;16.63;9.77;;;-1.20;75.40;;;2.70;46.54;96103.59;5001628;28;20034;-51
2022/12/14 03:32:55;;;;;;;14.43;9.40;;;-1.20;75.60;;;2.71;47.04;96102.59;5001175;28;20050;-52
2022/12/14 03:35:31;;;;;;;14.30;8.60;;;-1.10;75.40;;;2.75;46.79;96099.53;5011702;28;20049;-54
2022/12/14 03:38:23;;;;;;;17.13;9.87;;;-1.10;75.20;;;2.69;46.89;96094.84;5001685;28;20072;-52
2022/12/14 03:41:21;;;;;;;20.17;11.03;;;-1.10;74.10;;;2.68;46.53;96090.59;5001107;28;20052;-55
2022/12/14 03:44:37;;;;;;;17.70;9.27;;;-1.10;74.00;;;2.70;46.40;96087.81;5002640;28;20042;-55
2022/12/14 03:48:26;;;;;;;19.00;8.97;;;-1.10;74.10;;;2.62;46.57;96092.97;5002412;28;20239;-54
2022/12/14 03:51:20;;;;;;;16.27;9.37;;;-1.10;71.50;;;2.70;46.58;96078.13;4979132;28;20153;-54
2022/12/14 03:54:15;;;;;;;15.18;9.38;;;-1.10;71.90;;;2.74;46.09;96068.13;4980280;28;20134;-52
2022/12/14 03:57:04;;;;;;;19.42;10.25;;;-1.10;72.10;;;2.72;46.04;96063.03;5001276;28;20064;-53
2022/12/14 04:00:11;;;;;;;22.90;10.53;;;-1.10;71.50;;;2.69;46.32;96054.63;5001386;28;20065;-52
2022/12/14 04:03:14;;;;;;;17.60;9.30;;;-1.00;71.40;;;2.77;45.94;96049.41;5012047;28;20054;-52
2022/12/14 04:06:02;;;;;;;13.97;9.43;;;-1.10;71.70;;;2.79;45.86;96044.84;5017460;28;20330;-55
2022/12/14 04:08:46;;;;;;;20.13;9.43;;;-1.00;71.30;;;2.83;45.94;96046.22;5001435;28;20046;-53
2022/12/14 04:20:15;;;;;;;18.98;9.57;;;-1.10;71.40;;;2.86;45.84;96027.50;5001219;28;20387;-54
2022/12/14 04:22:51;;;;;;;24.48;11.90;;;-1.10;71.30;;;2.87;45.91;96025.69;5000857;28;20054;-54
2022/12/14 04:31:53;;;;;;;19.13;9.83;;;-1.00;71.10;;;2.88;45.80;96020.28;4998651;28;20349;-52
2022/12/14 04:34:25;;;;;;;17.20;9.83;;;-1.00;71.40;;;2.89;45.56;96026.34;5002509;28;20060;-55
2022/12/14 04:37:02;;;;;;;15.83;9.23;;;-1.00;71.50;;;2.90;45.66;96020.94;5000771;28;20050;-54
2022/12/14 04:39:49;;;;;;;16.17;10.07;;;-1.00;71.90;;;2.88;46.04;96025.53;5000880;28;20054;-55
2022/12/14 04:42:20;;;;;;;18.60;10.17;;;-0.90;71.50;;;2.94;45.50;96022.28;4993831;28;20049;-52
2022/12/14 04:44:57;;;;;;;16.77;10.40;;;-0.90;71.80;;;2.93;45.86;96011.94;5000966;28;20053;-51
2022/12/14 04:47:32;;;;;;;21.70;11.30;;;-1.00;72.00;;;2.98;45.56;96011.47;5000980;28;20060;-54
2022/12/14 04:50:41;;;;;;;24.83;12.33;;;-1.00;72.10;;;2.88;45.78;96003.69;5000833;28;20064;-54
2022/12/14 04:53:16;;;;;;;24.97;11.43;;;-0.90;72.30;;;2.97;45.38;95997.50;4993568;28;20253;-51
2022/12/14 04:56:08;;;;;;;34.23;18.37;;;-0.90;72.90;;;2.86;46.01;95992.50;5000820;28;20042;-51
2022/12/14 04:58:37;;;;;;;23.57;14.63;;;-0.80;72.80;;;2.92;45.91;95995.31;5001926;28;20060;-53
2022/12/14 05:01:29;;;;;;;25.53;14.77;;;-0.80;72.70;;;2.89;45.97;96005.31;5000277;28;20049;-52
2022/12/14 05:04:30;;;;;;;29.27;15.70;;;-0.80;72.30;;;2.86;46.10;96013.53;5001869;28;20050;-55
2022/12/14 05:07:53;;;;;;;25.73;12.90;;;-0.80;72.60;;;2.89;46.52;96000.06;5000972;28;20058;-55
2022/12/14 05:10:41;;;;;;;21.83;11.73;;;-0.80;72.90;;;2.93;46.11;96002.25;4994885;28;20047;-52
2022/12/14 05:13:42;;;;;;;19.13;10.70;;;-0.80;73.30;;;2.94;46.28;95987.28;5002014;28;20043;-50
2022/12/14 05:16:22;;;;;;;19.40;11.07;;;-0.80;73.50;;;3.03;46.21;95977.66;4997054;28;20046;-49
2022/12/14 05:18:50;;;;;;;17.17;11.13;;;-0.80;74.00;;;3.05;46.04;95978.34;5004069;28;20042;-53
2022/12/14 05:24:06;;;;;;;19.33;10.93;;;-0.80;74.10;;;3.07;46.23;95992.16;5005161;28;20054;-55
2022/12/14 05:26:34;;;;;;;18.67;12.20;;;-0.80;74.70;;;3.07;46.59;95984.25;5005763;28;20053;-53
2022/12/14 05:29:02;;;;;;;21.60;13.13;;;-0.80;75.60;;;3.04;46.90;95988.00;5003899;28;20378;-55
2022/12/14 05:31:30;;;;;;;28.20;15.27;;;-0.80;76.50;;;3.04;46.72;95987.19;5004589;28;20366;-52
2022/12/14 05:33:58;;;;;;;43.77;21.80;;;-0.80;77.20;;;3.05;46.97;95989.66;5003893;28;20057;-52
2022/12/14 05:36:25;;;;;;;55.70;26.57;;;-0.90;77.90;;;3.07;46.84;95986.91;5004335;28;20038;-52
2022/12/14 05:38:53;;;;;;;57.20;30.20;;;-0.80;78.50;;;3.03;47.11;95978.50;4987421;28;20054;-50
2022/12/14 05:41:21;;;;;;;47.07;24.33;;;-0.90;78.90;;;3.02;47.51;95976.00;5004301;28;20050;-54
2022/12/14 05:43:51;;;;;;;31.30;18.83;;;-0.90;79.20;;;3.02;47.37;95970.75;5004714;28;20074;-61
2022/12/14 05:46:18;;;;;;;27.53;14.70;;;-0.90;79.70;;;3.02;47.60;95961.03;5004801;28;20042;-60
2022/12/14 05:48:46;;;;;;;25.37;14.37;;;-0.90;80.70;;;3.01;47.88;95969.13;5005153;28;20046;-61
2022/12/14 05:51:16;;;;;;;41.30;21.00;;;-0.90;81.50;;;3.02;47.81;95960.22;5004271;28;20048;-60
2022/12/14 05:53:44;;;;;;;41.17;18.87;;;-1.00;82.00;;;3.02;47.58;95950.53;5003503;28;20042;-60
2022/12/14 05:56:12;;;;;;;37.83;18.03;;;-1.00;82.50;;;3.01;47.80;95948.09;5003427;28;20049;-62
2022/12/14 05:58:40;;;;;;;29.77;16.23;;;-1.00;83.30;;;2.99;48.01;95950.84;5004420;28;20046;-60
2022/12/14 06:01:10;;;;;;;30.70;15.93;;;-1.00;84.40;;;3.01;48.50;95958.59;5002921;28;20048;-60
2022/12/14 06:03:46;;;;;;;39.80;19.63;;;-1.00;85.50;;;2.97;48.19;95958.09;5003521;28;20395;-60
2022/12/14 06:06:14;;;;;;;34.97;18.73;;;-1.00;85.60;;;2.94;48.51;95950.50;4996668;28;20233;-60
2022/12/14 06:08:44;;;;;;;41.20;20.07;;;-1.10;85.90;;;2.91;48.73;95943.75;5004175;28;20224;-60
2022/12/14 06:11:19;;;;;;;35.20;17.10;;;-1.10;86.60;;;2.89;48.77;95953.59;5002579;28;20046;-60
2022/12/14 06:13:47;;;;;;;40.63;20.30;;;-1.10;87.40;;;2.90;48.44;95944.72;5004182;28;20057;-60
2022/12/14 06:16:22;;;;;;;52.33;25.10;;;-1.10;87.30;;;2.86;48.43;95953.06;4996561;28;20034;-60
2022/12/14 06:18:53;;;;;;;66.97;29.85;;;-1.00;86.70;;;2.81;48.56;95939.56;5002915;28;20510;-60
2022/12/14 06:21:29;;;;;;;75.83;35.10;;;-0.90;86.60;;;2.79;48.60;95949.41;5003676;28;20042;-60
2022/12/14 06:23:57;;;;;;;51.33;24.53;;;-0.90;86.60;;;2.81;48.78;95939.56;5003961;28;20046;-60
2022/12/14 06:26:27;;;;;;;40.23;19.80;;;-0.90;86.40;;;2.81;49.13;95935.16;5001652;28;20248;-61
2022/12/14 06:28:56;;;;;;;51.50;20.10;;;-0.90;86.00;;;2.85;48.86;95935.63;5003778;28;20054;-61
2022/12/14 06:31:28;;;;;;;41.20;18.77;;;-0.90;86.50;;;2.85;48.73;95941.75;5002303;28;20064;-60
2022/12/14 06:34:01;;;;;;;40.23;19.10;;;-1.00;86.00;;;2.83;49.02;95937.59;5002752;28;20345;-60
2022/12/14 06:36:33;;;;;;;34.35;17.27;;;-1.00;86.50;;;2.83;48.77;95933.19;5002385;28;20050;-61
2022/12/14 06:39:14;;;;;;;41.10;17.63;;;-1.10;87.20;;;2.83;49.22;95940.22;5002669;28;20042;-61
2022/12/14 06:41:47;;;;;;;28.30;15.57;;;-1.10;87.60;;;2.85;49.28;95927.75;5001908;28;20076;-61
2022/12/14 06:44:15;;;;;;;33.80;16.47;;;-1.10;87.70;;;2.81;48.69;95922.00;5002537;28;20048;-61
2022/12/14 06:46:43;;;;;;;34.93;17.43;;;-1.10;87.20;;;2.80;48.98;95904.56;5003743;28;20245;-61
2022/12/14 06:49:14;;;;;;;29.87;16.27;;;-1.10;87.40;;;2.80;48.95;95899.31;5003197;28;20042;-61
2022/12/14 06:51:43;;;;;;;25.43;13.93;;;-1.20;87.60;;;2.78;49.42;95897.84;5001946;28;20043;-61
2022/12/14 06:54:12;;;;;;;33.70;17.57;;;-1.10;87.90;;;2.78;49.27;95903.91;5003238;28;20233;-61
2022/12/14 06:56:43;;;;;;;36.97;16.63;;;-1.10;87.70;;;2.76;49.46;95903.25;5003880;28;20060;-61
2022/12/14 06:59:12;;;;;;;33.77;17.13;;;-1.10;87.80;;;2.80;49.35;95890.63;5002247;28;20060;-61
2022/12/14 07:01:41;;;;;;;40.70;19.53;;;-1.10;87.90;;;2.80;49.38;95885.38;5001799;28;20226;-61
2022/12/14 07:04:09;;;;;;;35.77;15.47;;;-1.10;87.80;;;2.80;49.42;95888.00;5001945;28;20050;-60
2022/12/14 07:06:39;;;;;;;28.77;14.97;;;-1.10;88.40;;;2.79;49.13;95887.16;5003543;28;20043;-60
2022/12/14 07:09:11;;;;;;;25.80;14.60;;;-1.10;88.60;;;2.80;49.25;95878.28;5003062;28;20049;-60
2022/12/14 07:11:40;;;;;;;35.53;17.67;;;-1.10;88.60;;;2.79;49.39;95862.69;5001833;28;20050;-59
2022/12/14 07:14:15;;;;;;;29.60;16.27;;;-1.10;89.00;;;2.75;49.64;95865.63;5001918;28;20057;-60
2022/12/14 07:16:43;;;;;;;37.00;17.33;;;-1.20;89.60;;;2.74;49.37;95868.41;5002008;28;20056;-60
2022/12/14 07:19:16;;;;;;;41.30;18.13;;;-1.20;90.20;;;2.73;49.84;95870.22;5002606;28;20357;-60
2022/12/14 07:21:44;;;;;;;46.37;20.97;;;-1.20;90.90;;;2.74;49.65;95869.22;5002684;28;20064;-60
2022/12/14 07:24:12;;;;;;;31.97;18.40;;;-1.30;91.80;;;2.74;49.51;95869.22;5002657;28;20046;-60
2022/12/14 07:26:40;;;;;;;42.40;20.97;;;-1.20;92.10;;;2.71;50.09;95871.34;5002868;28;20232;-60
2022/12/14 07:29:10;;;;;;;42.00;19.07;;;-1.20;92.10;;;2.71;49.83;95871.34;5002790;28;20046;-61
2022/12/14 07:31:38;;;;;;;35.13;19.33;;;-1.20;92.50;;;2.69;49.83;95870.69;5000380;28;20252;-60
2022/12/14 07:34:06;;;;;;;46.27;22.13;;;-1.30;93.50;;;2.68;49.71;95861.16;5002770;28;20054;-60
2022/12/14 07:36:33;;;;;;;70.83;29.17;;;-1.30;94.50;;;2.68;49.98;95864.59;5002532;28;20381;-60
2022/12/14 07:39:01;;;;;;;61.83;25.23;;;-1.40;95.40;;;2.68;50.46;95856.72;5002792;28;20053;-60
2022/12/14 07:41:30;;;;;;;62.97;23.07;;;-1.30;96.10;;;2.69;50.21;95858.34;5002290;28;20075;-61
2022/12/14 07:43:59;;;;;;;52.43;20.23;;;-1.30;96.80;;;2.70;50.48;95859.19;5002400;28;20043;-60
2022/12/14 07:46:29;;;;;;;37.90;18.70;;;-1.20;97.00;;;2.68;50.78;95858.53;5002602;28;20181;-60
2022/12/14 07:48:59;;;;;;;44.40;20.03;;;-1.30;96.80;;;2.68;50.63;95851.47;5002306;28;20046;-62
2022/12/14 07:51:37;;;;;;;36.03;18.17;;;-1.30;97.70;;;2.69;50.57;95847.03;5001091;28;20254;-60
2022/12/14 07:54:05;;;;;;;41.63;18.97;;;-1.30;98.30;;;2.71;50.61;95838.00;4985363;28;20050;-51
2022/12/14 07:56:38;;;;;;;40.93;19.47;;;-1.30;98.60;;;2.72;50.43;95834.41;5002375;28;20054;-54
2022/12/14 07:59:14;;;;;;;55.47;21.97;;;-1.30;99.40;;;2.72;50.38;95836.22;5002301;28;20383;-53
2022/12/14 08:01:43;;;;;;;42.33;20.37;;;-1.30;99.60;;;2.75;50.50;95841.13;5000209;28;20046;-49
2022/12/14 08:04:15;;;;;;;37.63;20.63;;;-1.20;99.90;;;2.82;50.82;95849.25;5000665;28;20046;-53
2022/12/14 08:06:48;;;;;;;43.70;20.97;;;-1.10;99.90;;;2.84;50.86;95855.16;5002177;28;20046;-52
2022/12/14 08:09:18;;;;;;;64.80;22.63;;;-1.00;99.70;;;2.83;51.01;95851.72;5001111;28;20042;-53
2022/12/14 08:11:47;;;;;;;59.10;24.73;;;-1.00;99.50;;;2.86;50.70;95853.19;5000589;28;20050;-51
2022/12/14 08:14:17;;;;;;;57.00;24.63;;;-1.00;99.90;;;2.89;50.70;95844.97;5000952;28;20054;-55
2022/12/14 08:16:47;;;;;;;36.13;16.87;;;-1.10;99.70;;;2.90;50.55;95839.56;5002804;28;20283;-51
2022/12/14 08:19:17;;;;;;;47.10;21.47;;;-1.00;99.90;;;2.91;50.89;95840.41;5002056;28;20050;-53
2022/12/14 08:21:45;;;;;;;49.00;20.77;;;-1.00;99.90;;;2.90;50.80;95839.56;5000375;28;20054;-50
2022/12/14 08:24:15;;;;;;;34.43;18.20;;;-1.10;99.90;;;2.89;50.85;95839.72;5002061;28;20385;-55
2022/12/14 08:26:43;;;;;;;41.00;20.23;;;-1.10;99.90;;;2.90;51.21;95841.38;5000903;28;20248;-52
2022/12/14 08:29:17;;;;;;;69.70;25.63;;;-1.00;99.90;;;2.93;51.44;95831.38;5002042;28;20053;-52
2022/12/14 08:31:45;;;;;;;36.37;18.60;;;-1.00;99.90;;;2.92;51.51;95836.78;5002100;28;20054;-52
2022/12/14 08:34:15;;;;;;;42.63;21.77;;;-1.00;99.90;;;2.91;51.29;95840.41;5002018;28;20046;-53
2022/12/14 08:36:43;;;;;;;33.40;18.43;;;-1.10;99.90;;;2.95;51.41;95855.69;5002117;28;20073;-55
2022/12/14 08:39:12;;;;;;;46.93;21.93;;;-1.00;99.90;;;2.98;51.21;95859.00;5001697;28;20046;-51
2022/12/14 08:41:39;;;;;;;41.43;20.57;;;-1.00;99.90;;;3.02;51.03;95850.63;5001591;28;20046;-54
2022/12/14 08:44:08;;;;;;;42.40;20.07;;;-1.00;99.90;;;3.05;51.23;95844.25;5001837;28;20038;-55
2022/12/14 08:46:39;;;;;;;56.17;25.13;;;-0.90;99.90;;;3.03;51.52;95836.50;5000822;28;20056;-52
2022/12/14 08:49:07;;;;;;;52.83;24.23;;;-1.00;99.90;;;3.03;51.13;95840.97;5003768;28;20241;-51
2022/12/14 08:51:38;;;;;;;105.37;37.37;;;-0.90;99.90;;;3.05;51.50;95839.81;5005480;28;20296;-53
2022/12/14 08:54:06;;;;;;;59.07;26.00;;;-0.90;99.90;;;3.04;51.52;95834.69;5005855;28;20068;-55
2022/12/14 08:56:34;;;;;;;39.70;20.00;;;-1.00;99.90;;;3.06;51.88;95833.53;5005304;28;20053;-54
2022/12/14 08:59:02;;;;;;;46.73;22.93;;;-0.90;99.90;;;3.09;51.78;95832.44;5005417;28;20046;-55
2022/12/14 09:01:30;;;;;;;60.17;24.37;;;-0.90;99.90;;;3.08;51.73;95822.88;5006033;28;20050;-53
2022/12/14 09:04:04;;;;;;;42.47;20.47;;;-0.90;99.90;;;3.07;51.61;95813.34;5005291;28;20052;-54
2022/12/14 09:06:36;;;;;;;49.07;23.43;;;-0.90;99.90;;;3.11;51.42;95823.38;5004128;28;20054;-53
2022/12/14 09:09:07;;;;;;;86.77;34.23;;;-0.80;99.90;;;3.08;52.05;95836.88;5004298;28;20052;-53
2022/12/14 09:11:44;;;;;;;54.83;24.50;;;-0.80;99.90;;;3.08;51.64;95828.97;4997062;28;20050;-55
2022/12/14 09:14:15;;;;;;;41.73;21.30;;;-0.80;99.90;;;3.07;52.00;95827.31;4997457;28;20076;-52
2022/12/14 09:16:46;;;;;;;36.27;19.47;;;-0.70;99.90;;;3.11;52.02;95820.75;4999982;28;20259;-53
2022/12/14 09:19:26;;;;;;;33.20;20.67;;;-0.70;99.90;;;3.18;52.06;95820.13;4968858;28;20065;-53
2022/12/14 09:22:03;;;;;;;43.20;21.70;;;-0.60;99.90;;;3.20;52.25;95812.88;4999437;28;20066;-52
2022/12/14 09:24:34;;;;;;;46.97;21.97;;;-0.70;99.90;;;3.20;52.09;95819.00;4999439;28;20046;-53
2022/12/14 09:27:03;;;;;;;41.80;21.07;;;-0.60;99.90;;;3.18;52.05;95818.34;4997827;28;20077;-52
2022/12/14 09:29:34;;;;;;;39.70;20.70;;;-0.60;99.90;;;3.23;52.45;95825.72;5000167;28;20058;-53
2022/12/14 09:32:04;;;;;;;40.40;20.87;;;-0.60;99.90;;;3.23;52.25;95828.38;4997949;28;20345;-53
2022/12/14 09:34:38;;;;;;;36.90;19.80;;;-0.50;99.90;;;3.24;52.08;95830.84;4998079;28;20048;-55
2022/12/14 09:37:15;;;;;;;40.40;19.90;;;-0.50;99.90;;;3.25;51.96;95829.03;4998239;28;20240;-55
2022/12/14 09:39:48;;;;;;;39.00;20.00;;;-0.60;99.90;;;3.27;52.01;95827.88;4998885;28;20050;-53
2022/12/14 09:43:00;;;;;;;37.13;18.93;;;-0.60;99.90;;;3.17;52.10;95824.56;4998612;28;20073;-52
2022/12/14 09:45:37;;;;;;;35.60;19.20;;;-0.70;99.90;;;3.25;52.20;95823.75;4988486;28;20068;-51
2022/12/14 09:48:25;;;;;;;45.93;20.80;;;-0.70;99.90;;;3.18;52.04;95826.22;4998877;28;20056;-50
2022/12/14 09:51:02;;;;;;;41.07;22.53;;;-0.60;99.90;;;3.23;52.38;95823.91;4993104;28;20054;-52
2022/12/14 09:53:36;;;;;;;44.28;25.20;;;-0.70;99.90;;;3.22;52.19;95821.44;5011865;28;20229;-54
2022/12/14 09:56:25;;;;;;;38.70;20.33;;;-0.70;99.90;;;3.21;52.29;95825.06;4982504;28;20058;-53
2022/12/14 09:58:58;;;;;;;40.77;20.83;;;-0.70;99.90;;;3.22;52.81;95832.81;4997700;28;20264;-55
2022/12/14 10:01:56;;;;;;;43.33;21.43;;;-0.70;99.90;;;3.18;52.58;95828.84;4995528;28;20054;-54
2022/12/14 10:05:58;;;;;;;41.70;21.70;;;-0.70;99.90;;;3.20;52.66;95828.66;4996078;28;20042;-53
2022/12/14 10:09:07;;;;;;;39.63;19.97;;;-0.70;99.90;;;3.24;52.51;95817.69;4965491;28;20069;-51
2022/12/14 10:12:09;;;;;;;35.53;20.10;;;-0.70;99.90;;;3.31;52.40;95810.78;4983091;28;20049;-54
2022/12/14 10:15:02;;;;;;;43.07;21.63;;;-0.60;99.90;;;3.34;52.58;95813.09;5000879;28;20257;-58
2022/12/14 10:18:08;;;;;;;40.67;20.80;;;-0.50;99.90;;;3.30;52.77;95805.69;5001865;28;20046;-58
2022/12/14 10:21:21;;;;;;;45.77;21.23;;;-0.50;99.90;;;3.32;52.70;95803.72;5003492;28;20057;-51
2022/12/14 10:24:02;;;;;;;37.80;19.67;;;-0.60;99.90;;;3.38;52.34;95803.09;5002129;28;20241;-53
2022/12/14 10:26:59;;;;;;;37.07;21.37;;;-0.60;99.90;;;3.39;52.65;95804.72;5002571;28;20038;-52
2022/12/14 10:29:38;;;;;;;39.90;20.93;;;-0.60;99.90;;;3.42;52.70;95809.66;5002839;28;20060;-52
2022/12/14 10:32:34;;;;;;;30.73;18.73;;;-0.60;99.90;;;3.39;52.72;95806.53;5002448;28;20049;-56
2022/12/14 10:35:30;;;;;;;35.43;20.27;;;-0.60;99.90;;;3.39;52.61;95802.09;5002829;28;20068;-55
2022/12/14 10:38:11;;;;;;;36.97;20.27;;;-0.50;99.90;;;3.48;52.53;95798.50;4987106;28;20053;-54
2022/12/14 10:40:48;;;;;;;36.33;20.10;;;-0.50;99.90;;;3.49;52.45;95794.03;5003076;28;20042;-51
2022/12/14 10:43:39;;;;;;;38.17;21.03;;;-0.50;99.90;;;3.49;52.95;95788.78;5002320;28;20050;-55
2022/12/14 10:46:25;;;;;;;42.03;22.93;;;-0.40;99.90;;;3.57;52.46;95799.34;5003279;28;20048;-53
2022/12/14 10:49:03;;;;;;;41.87;21.60;;;-0.40;99.90;;;3.58;52.45;95797.53;5003691;28;20050;-51
2022/12/14 10:51:40;;;;;;;40.37;23.10;;;-0.40;99.90;;;3.64;52.65;95797.69;4995348;28;20237;-53
2022/12/14 10:54:52;;;;;;;42.47;24.63;;;-0.30;99.90;;;3.60;52.70;95798.19;5002185;28;20046;-54
2022/12/14 10:57:25;;;;;;;39.50;21.57;;;-0.30;99.90;;;3.72;52.62;95810.88;4995751;28;20248;-54
2022/12/14 10:59:56;;;;;;;41.75;21.60;;;-0.20;99.90;;;3.77;52.64;95801.66;5002078;28;20444;-55
2022/12/14 11:02:44;;;;;;;43.37;21.07;;;-0.20;99.90;;;3.78;52.55;95809.41;5002698;28;20042;-54
2022/12/14 11:05:34;;;;;;;39.30;20.67;;;-0.20;99.90;;;3.81;52.64;95805.59;5002675;28;20391;-60
2022/12/14 11:08:06;;;;;;;41.30;21.67;;;0.00;99.90;;;3.87;52.72;95800.50;5003104;28;20045;-59
2022/12/14 11:10:38;;;;;;;40.87;22.83;;;0.00;99.90;;;3.91;52.69;95793.91;5002320;28;20043;-61
2022/12/14 11:13:12;;;;;;;52.37;26.80;;;0.00;99.90;;;3.93;52.61;95791.94;5002670;28;20042;-61
2022/12/14 11:15:54;;;;;;;42.47;24.80;;;0.10;99.90;;;3.98;52.27;95788.81;5003148;28;20052;-60